sensor_id;sensor_type;location;lat;lon;timestamp;P1;durP1;ratioP1;P2;durP2;ratioP2
2011;SDS011;1009;51.436;6.972;2023-06-26T00:02:12;5.77;;;4.80;;
2011;SDS011;1009;51.436;6.972;2023-06-26T00:04:39;6.80;;;5.40;;
2011;SDS011;1009;51.436;6.972;2023-06-26T00:07:06;5.80;;;5.10;;
2011;SDS011;1009;51.436;6.972;2023-06-26T00:09:32;7.47;;;5.03;;
2011;SDS011;1009;51.436;6.972;2023-06-26T00:11:59;5.80;;;4.77;;
2011;SDS011;1009;51.436;6.972;2023-06-26T00:14:26;5.20;;;4.27;;
2011;SDS011;1009;51.436;6.972;2023-06-26T00:16:54;5.70;;;4.60;;
2011;SDS011;1009;51.436;6.972;2023-06-26T00:19:21;6.33;;;5.27;;
2011;SDS011;1009;51.436;6.972;2023-06-26T00:21:48;6.50;;;5.17;;
2011;SDS011;1009;51.436;6.972;2023-06-26T00:24:14;6.57;;;5.23;;
2011;SDS011;1009;51.436;6.972;2023-06-26T00:26:42;5.17;;;4.67;;
2011;SDS011;1009;51.436;6.972;2023-06-26T00:29:09;5.67;;;4.90;;
2011;SDS011;1009;51.436;6.972;2023-06-26T00:31:36;5.30;;;4.80;;
2011;SDS011;1009;51.436;6.972;2023-06-26T00:34:04;5.50;;;4.87;;
2011;SDS011;1009;51.436;6.972;2023-06-26T00:36:31;6.00;;;5.00;;
2011;SDS011;1009;51.436;6.972;2023-06-26T00:38:58;6.40;;;4.60;;
2011;SDS011;1009;51.436;6.972;2023-06-26T00:41:25;6.13;;;5.07;;
2011;SDS011;1009;51.436;6.972;2023-06-26T00:43:52;5.17;;;4.73;;
2011;SDS011;1009;51.436;6.972;2023-06-26T00:46:19;6.57;;;5.00;;
2011;SDS011;1009;51.436;6.972;2023-06-26T00:48:46;5.87;;;5.23;;
2011;SDS011;1009;51.436;6.972;2023-06-26T00:51:16;6.40;;;5.27;;
2011;SDS011;1009;51.436;6.972;2023-06-26T00:53:43;5.70;;;5.10;;
2011;SDS011;1009;51.436;6.972;2023-06-26T00:56:10;5.23;;;4.70;;
2011;SDS011;1009;51.436;6.972;2023-06-26T00:58:37;5.93;;;5.37;;
2011;SDS011;1009;51.436;6.972;2023-06-26T01:01:04;6.50;;;4.97;;
2011;SDS011;1009;51.436;6.972;2023-06-26T01:03:34;5.43;;;4.80;;
2011;SDS011;1009;51.436;6.972;2023-06-26T01:06:02;6.50;;;5.20;;
2011;SDS011;1009;51.436;6.972;2023-06-26T01:08:33;6.27;;;5.00;;
2011;SDS011;1009;51.436;6.972;2023-06-26T01:10:59;6.40;;;5.00;;
2011;SDS011;1009;51.436;6.972;2023-06-26T01:13:27;6.87;;;5.00;;
2011;SDS011;1009;51.436;6.972;2023-06-26T01:15:55;5.30;;;4.43;;
2011;SDS011;1009;51.436;6.972;2023-06-26T01:18:23;6.67;;;5.37;;
2011;SDS011;1009;51.436;6.972;2023-06-26T01:20:51;5.63;;;4.80;;
2011;SDS011;1009;51.436;6.972;2023-06-26T01:23:20;6.93;;;5.30;;
2011;SDS011;1009;51.436;6.972;2023-06-26T01:25:56;5.60;;;4.83;;
2011;SDS011;1009;51.436;6.972;2023-06-26T01:28:38;5.97;;;4.67;;
2011;SDS011;1009;51.436;6.972;2023-06-26T01:31:07;5.83;;;4.87;;
2011;SDS011;1009;51.436;6.972;2023-06-26T01:33:36;7.17;;;4.77;;
2011;SDS011;1009;51.436;6.972;2023-06-26T01:36:04;5.60;;;4.37;;
2011;SDS011;1009;51.436;6.972;2023-06-26T01:38:32;6.33;;;5.40;;
2011;SDS011;1009;51.436;6.972;2023-06-26T01:40:59;6.37;;;4.57;;
2011;SDS011;1009;51.436;6.972;2023-06-26T01:43:29;7.10;;;4.67;;
2011;SDS011;1009;51.436;6.972;2023-06-26T01:46:02;6.00;;;4.70;;
2011;SDS011;1009;51.436;6.972;2023-06-26T01:48:47;4.80;;;4.30;;
2011;SDS011;1009;51.436;6.972;2023-06-26T01:51:21;4.90;;;4.40;;
2011;SDS011;1009;51.436;6.972;2023-06-26T01:53:53;7.27;;;5.03;;
2011;SDS011;1009;51.436;6.972;2023-06-26T01:56:23;6.07;;;4.80;;
2011;SDS011;1009;51.436;6.972;2023-06-26T01:58:52;5.63;;;4.80;;
2011;SDS011;1009;51.436;6.972;2023-06-26T02:01:20;7.93;;;5.20;;
2011;SDS011;1009;51.436;6.972;2023-06-26T02:03:47;5.90;;;4.50;;
2011;SDS011;1009;51.436;6.972;2023-06-26T02:06:14;6.90;;;5.50;;
2011;SDS011;1009;51.436;6.972;2023-06-26T02:08:41;6.13;;;4.83;;
2011;SDS011;1009;51.436;6.972;2023-06-26T02:11:08;6.50;;;5.10;;
2011;SDS011;1009;51.436;6.972;2023-06-26T02:13:35;5.40;;;4.90;;
2011;SDS011;1009;51.436;6.972;2023-06-26T02:16:03;6.07;;;5.27;;
2011;SDS011;1009;51.436;6.972;2023-06-26T02:18:29;5.40;;;4.43;;
2011;SDS011;1009;51.436;6.972;2023-06-26T02:20:56;5.67;;;4.70;;
2011;SDS011;1009;51.436;6.972;2023-06-26T02:23:23;5.70;;;4.87;;
2011;SDS011;1009;51.436;6.972;2023-06-26T02:25:49;9.03;;;5.23;;
2011;SDS011;1009;51.436;6.972;2023-06-26T02:28:16;6.93;;;5.23;;
2011;SDS011;1009;51.436;6.972;2023-06-26T02:30:43;5.17;;;4.67;;
2011;SDS011;1009;51.436;6.972;2023-06-26T02:33:11;5.40;;;4.67;;
2011;SDS011;1009;51.436;6.972;2023-06-26T02:35:38;6.50;;;5.17;;
2011;SDS011;1009;51.436;6.972;2023-06-26T02:38:04;5.40;;;4.50;;
2011;SDS011;1009;51.436;6.972;2023-06-26T02:40:31;7.03;;;4.90;;
2011;SDS011;1009;51.436;6.972;2023-06-26T02:42:58;4.97;;;4.47;;
2011;SDS011;1009;51.436;6.972;2023-06-26T02:45:25;5.93;;;4.73;;
2011;SDS011;1009;51.436;6.972;2023-06-26T02:47:52;6.40;;;4.90;;
2011;SDS011;1009;51.436;6.972;2023-06-26T02:50:20;6.33;;;5.33;;
2011;SDS011;1009;51.436;6.972;2023-06-26T02:52:47;6.17;;;5.17;;
2011;SDS011;1009;51.436;6.972;2023-06-26T02:55:17;6.60;;;5.30;;
2011;SDS011;1009;51.436;6.972;2023-06-26T02:57:45;6.40;;;4.77;;
2011;SDS011;1009;51.436;6.972;2023-06-26T03:00:12;7.33;;;4.90;;
2011;SDS011;1009;51.436;6.972;2023-06-26T03:02:40;10.07;;;4.77;;
2011;SDS011;1009;51.436;6.972;2023-06-26T03:05:07;8.23;;;4.90;;
2011;SDS011;1009;51.436;6.972;2023-06-26T03:07:35;6.87;;;5.13;;
2011;SDS011;1009;51.436;6.972;2023-06-26T03:10:02;5.93;;;4.90;;
2011;SDS011;1009;51.436;6.972;2023-06-26T03:12:29;6.13;;;4.87;;
2011;SDS011;1009;51.436;6.972;2023-06-26T03:14:55;5.80;;;5.13;;
2011;SDS011;1009;51.436;6.972;2023-06-26T03:17:22;6.07;;;4.77;;
2011;SDS011;1009;51.436;6.972;2023-06-26T03:19:49;5.57;;;4.57;;
2011;SDS011;1009;51.436;6.972;2023-06-26T03:22:15;7.30;;;5.43;;
2011;SDS011;1009;51.436;6.972;2023-06-26T03:24:44;6.30;;;4.80;;
2011;SDS011;1009;51.436;6.972;2023-06-26T03:27:11;5.60;;;5.10;;
2011;SDS011;1009;51.436;6.972;2023-06-26T03:29:38;5.50;;;4.90;;
2011;SDS011;1009;51.436;6.972;2023-06-26T03:32:05;6.07;;;5.20;;
2011;SDS011;1009;51.436;6.972;2023-06-26T03:34:32;5.00;;;4.50;;
2011;SDS011;1009;51.436;6.972;2023-06-26T03:36:59;5.93;;;5.13;;
2011;SDS011;1009;51.436;6.972;2023-06-26T03:39:27;7.20;;;5.90;;
2011;SDS011;1009;51.436;6.972;2023-06-26T03:41:55;8.53;;;5.73;;
2011;SDS011;1009;51.436;6.972;2023-06-26T03:44:25;8.80;;;5.80;;
2011;SDS011;1009;51.436;6.972;2023-06-26T03:46:56;6.53;;;5.33;;
2011;SDS011;1009;51.436;6.972;2023-06-26T03:49:22;5.30;;;4.70;;
2011;SDS011;1009;51.436;6.972;2023-06-26T03:51:52;6.20;;;5.30;;
2011;SDS011;1009;51.436;6.972;2023-06-26T03:54:19;6.93;;;5.70;;
2011;SDS011;1009;51.436;6.972;2023-06-26T03:56:46;5.70;;;4.97;;
2011;SDS011;1009;51.436;6.972;2023-06-26T03:59:14;7.30;;;5.70;;
2011;SDS011;1009;51.436;6.972;2023-06-26T04:01:41;6.97;;;4.60;;
2011;SDS011;1009;51.436;6.972;2023-06-26T04:04:08;7.50;;;5.50;;
2011;SDS011;1009;51.436;6.972;2023-06-26T04:06:34;6.73;;;5.60;;
2011;SDS011;1009;51.436;6.972;2023-06-26T04:09:01;6.53;;;5.23;;
2011;SDS011;1009;51.436;6.972;2023-06-26T04:11:29;12.70;;;4.67;;
2011;SDS011;1009;51.436;6.972;2023-06-26T04:13:56;6.40;;;4.87;;
2011;SDS011;1009;51.436;6.972;2023-06-26T04:16:25;5.10;;;4.07;;
2011;SDS011;1009;51.436;6.972;2023-06-26T04:18:51;7.20;;;5.30;;
2011;SDS011;1009;51.436;6.972;2023-06-26T04:21:20;6.10;;;4.83;;
2011;SDS011;1009;51.436;6.972;2023-06-26T04:23:49;7.90;;;4.90;;
2011;SDS011;1009;51.436;6.972;2023-06-26T04:26:16;6.17;;;4.47;;
2011;SDS011;1009;51.436;6.972;2023-06-26T04:28:43;5.97;;;4.03;;
2011;SDS011;1009;51.436;6.972;2023-06-26T04:31:10;9.90;;;4.93;;
2011;SDS011;1009;51.436;6.972;2023-06-26T04:33:38;7.07;;;4.30;;
2011;SDS011;1009;51.436;6.972;2023-06-26T04:36:06;5.77;;;4.80;;
2011;SDS011;1009;51.436;6.972;2023-06-26T04:38:33;5.97;;;4.53;;
2011;SDS011;1009;51.436;6.972;2023-06-26T04:41:00;8.37;;;5.13;;
2011;SDS011;1009;51.436;6.972;2023-06-26T04:43:27;6.27;;;4.80;;
2011;SDS011;1009;51.436;6.972;2023-06-26T04:45:54;5.77;;;4.50;;
2011;SDS011;1009;51.436;6.972;2023-06-26T04:48:21;4.77;;;3.73;;
2011;SDS011;1009;51.436;6.972;2023-06-26T04:50:49;6.00;;;4.40;;
2011;SDS011;1009;51.436;6.972;2023-06-26T04:53:19;5.97;;;4.70;;
2011;SDS011;1009;51.436;6.972;2023-06-26T04:55:46;6.30;;;4.20;;
2011;SDS011;1009;51.436;6.972;2023-06-26T04:58:12;6.40;;;4.83;;
2011;SDS011;1009;51.436;6.972;2023-06-26T05:00:39;6.57;;;4.87;;
2011;SDS011;1009;51.436;6.972;2023-06-26T05:03:07;7.97;;;5.17;;
2011;SDS011;1009;51.436;6.972;2023-06-26T05:05:34;9.23;;;5.27;;
2011;SDS011;1009;51.436;6.972;2023-06-26T05:08:06;6.53;;;5.20;;
2011;SDS011;1009;51.436;6.972;2023-06-26T05:10:39;9.17;;;5.47;;
2011;SDS011;1009;51.436;6.972;2023-06-26T05:13:06;6.27;;;4.70;;
2011;SDS011;1009;51.436;6.972;2023-06-26T05:15:33;6.17;;;3.90;;
2011;SDS011;1009;51.436;6.972;2023-06-26T05:18:00;6.07;;;5.47;;
2011;SDS011;1009;51.436;6.972;2023-06-26T05:20:26;7.07;;;5.30;;
2011;SDS011;1009;51.436;6.972;2023-06-26T05:22:53;7.70;;;5.60;;
2011;SDS011;1009;51.436;6.972;2023-06-26T05:25:22;7.40;;;5.83;;
2011;SDS011;1009;51.436;6.972;2023-06-26T05:27:50;6.33;;;5.53;;
2011;SDS011;1009;51.436;6.972;2023-06-26T05:30:18;7.90;;;5.63;;
2011;SDS011;1009;51.436;6.972;2023-06-26T05:32:45;8.30;;;5.73;;
2011;SDS011;1009;51.436;6.972;2023-06-26T05:35:13;6.20;;;4.80;;
2011;SDS011;1009;51.436;6.972;2023-06-26T05:37:41;7.70;;;5.20;;
2011;SDS011;1009;51.436;6.972;2023-06-26T05:40:08;5.97;;;5.20;;
2011;SDS011;1009;51.436;6.972;2023-06-26T05:42:38;6.53;;;4.33;;
2011;SDS011;1009;51.436;6.972;2023-06-26T05:45:05;5.60;;;4.17;;
2011;SDS011;1009;51.436;6.972;2023-06-26T05:47:32;8.17;;;4.70;;
2011;SDS011;1009;51.436;6.972;2023-06-26T05:50:01;4.60;;;3.77;;
2011;SDS011;1009;51.436;6.972;2023-06-26T05:52:29;5.30;;;3.70;;
2011;SDS011;1009;51.436;6.972;2023-06-26T05:54:56;14.23;;;3.90;;
2011;SDS011;1009;51.436;6.972;2023-06-26T05:57:25;4.10;;;3.40;;
2011;SDS011;1009;51.436;6.972;2023-06-26T05:59:54;6.47;;;3.60;;
2011;SDS011;1009;51.436;6.972;2023-06-26T06:02:22;6.23;;;4.20;;
2011;SDS011;1009;51.436;6.972;2023-06-26T06:04:49;6.17;;;3.77;;
2011;SDS011;1009;51.436;6.972;2023-06-26T06:07:16;4.27;;;3.47;;
2011;SDS011;1009;51.436;6.972;2023-06-26T06:09:43;5.97;;;3.93;;
2011;SDS011;1009;51.436;6.972;2023-06-26T06:12:09;9.60;;;4.93;;
2011;SDS011;1009;51.436;6.972;2023-06-26T06:14:39;4.47;;;3.70;;
2011;SDS011;1009;51.436;6.972;2023-06-26T06:17:07;8.47;;;4.50;;
2011;SDS011;1009;51.436;6.972;2023-06-26T06:19:34;6.23;;;3.90;;
2011;SDS011;1009;51.436;6.972;2023-06-26T06:22:01;8.43;;;4.20;;
2011;SDS011;1009;51.436;6.972;2023-06-26T06:24:28;6.97;;;4.10;;
2011;SDS011;1009;51.436;6.972;2023-06-26T06:26:54;3.80;;;3.00;;
2011;SDS011;1009;51.436;6.972;2023-06-26T06:29:21;5.27;;;3.37;;
2011;SDS011;1009;51.436;6.972;2023-06-26T06:31:48;6.53;;;4.03;;
2011;SDS011;1009;51.436;6.972;2023-06-26T06:34:16;10.90;;;3.80;;
2011;SDS011;1009;51.436;6.972;2023-06-26T06:36:49;9.90;;;4.20;;
2011;SDS011;1009;51.436;6.972;2023-06-26T06:39:16;12.40;;;4.13;;
2011;SDS011;1009;51.436;6.972;2023-06-26T06:41:42;5.33;;;3.57;;
2011;SDS011;1009;51.436;6.972;2023-06-26T06:44:09;9.47;;;4.07;;
2011;SDS011;1009;51.436;6.972;2023-06-26T06:46:36;4.83;;;3.13;;
2011;SDS011;1009;51.436;6.972;2023-06-26T06:49:02;4.97;;;3.00;;
2011;SDS011;1009;51.436;6.972;2023-06-26T06:51:30;9.27;;;4.13;;
2011;SDS011;1009;51.436;6.972;2023-06-26T06:53:57;7.03;;;4.63;;
2011;SDS011;1009;51.436;6.972;2023-06-26T06:56:24;7.47;;;4.17;;
2011;SDS011;1009;51.436;6.972;2023-06-26T06:58:50;9.93;;;4.27;;
2011;SDS011;1009;51.436;6.972;2023-06-26T07:01:17;4.90;;;4.40;;
2011;SDS011;1009;51.436;6.972;2023-06-26T07:03:44;7.60;;;4.30;;
2011;SDS011;1009;51.436;6.972;2023-06-26T07:06:10;6.43;;;4.20;;
2011;SDS011;1009;51.436;6.972;2023-06-26T07:08:38;6.07;;;4.07;;
2011;SDS011;1009;51.436;6.972;2023-06-26T07:11:08;7.13;;;5.10;;
2011;SDS011;1009;51.436;6.972;2023-06-26T07:13:35;10.83;;;5.00;;
2011;SDS011;1009;51.436;6.972;2023-06-26T07:16:05;8.37;;;4.80;;
2011;SDS011;1009;51.436;6.972;2023-06-26T07:18:36;8.10;;;4.67;;
2011;SDS011;1009;51.436;6.972;2023-06-26T07:21:03;9.60;;;4.40;;
2011;SDS011;1009;51.436;6.972;2023-06-26T07:23:36;6.10;;;4.30;;
2011;SDS011;1009;51.436;6.972;2023-06-26T07:26:19;6.90;;;4.60;;
2011;SDS011;1009;51.436;6.972;2023-06-26T07:28:47;7.73;;;4.37;;
2011;SDS011;1009;51.436;6.972;2023-06-26T07:31:14;10.23;;;4.53;;
2011;SDS011;1009;51.436;6.972;2023-06-26T07:33:42;10.10;;;4.40;;
2011;SDS011;1009;51.436;6.972;2023-06-26T07:36:09;10.40;;;5.63;;
2011;SDS011;1009;51.436;6.972;2023-06-26T07:38:35;9.27;;;5.00;;
2011;SDS011;1009;51.436;6.972;2023-06-26T07:41:03;6.07;;;4.73;;
2011;SDS011;1009;51.436;6.972;2023-06-26T07:43:30;9.70;;;5.43;;
2011;SDS011;1009;51.436;6.972;2023-06-26T07:45:57;8.57;;;4.97;;
2011;SDS011;1009;51.436;6.972;2023-06-26T07:48:24;6.87;;;4.40;;
2011;SDS011;1009;51.436;6.972;2023-06-26T07:50:51;9.07;;;4.77;;
2011;SDS011;1009;51.436;6.972;2023-06-26T07:53:18;13.03;;;5.93;;
2011;SDS011;1009;51.436;6.972;2023-06-26T07:55:45;6.27;;;4.33;;
2011;SDS011;1009;51.436;6.972;2023-06-26T07:58:13;7.90;;;4.23;;
2011;SDS011;1009;51.436;6.972;2023-06-26T08:00:40;8.50;;;5.67;;
2011;SDS011;1009;51.436;6.972;2023-06-26T08:03:07;9.80;;;4.80;;
2011;SDS011;1009;51.436;6.972;2023-06-26T08:05:33;8.57;;;4.40;;
2011;SDS011;1009;51.436;6.972;2023-06-26T08:08:00;15.73;;;5.87;;
2011;SDS011;1009;51.436;6.972;2023-06-26T08:10:28;10.63;;;7.40;;
2011;SDS011;1009;51.436;6.972;2023-06-26T08:12:55;11.23;;;6.73;;
2011;SDS011;1009;51.436;6.972;2023-06-26T08:15:23;8.30;;;5.80;;
2011;SDS011;1009;51.436;6.972;2023-06-26T08:17:50;13.07;;;5.20;;
2011;SDS011;1009;51.436;6.972;2023-06-26T08:23:38;11.10;;;6.87;;
2011;SDS011;1009;51.436;6.972;2023-06-26T08:31:17;12.10;;;5.80;;
2011;SDS011;1009;51.436;6.972;2023-06-26T08:33:44;12.03;;;5.10;;
2011;SDS011;1009;51.436;6.972;2023-06-26T08:36:11;7.30;;;5.10;;
2011;SDS011;1009;51.436;6.972;2023-06-26T08:38:38;9.40;;;5.60;;
2011;SDS011;1009;51.436;6.972;2023-06-26T08:41:05;6.70;;;4.57;;
2011;SDS011;1009;51.436;6.972;2023-06-26T08:43:32;7.67;;;4.20;;
2011;SDS011;1009;51.436;6.972;2023-06-26T08:46:00;5.70;;;3.97;;
2011;SDS011;1009;51.436;6.972;2023-06-26T08:48:31;9.57;;;4.50;;
2011;SDS011;1009;51.436;6.972;2023-06-26T08:51:00;5.80;;;3.90;;
2011;SDS011;1009;51.436;6.972;2023-06-26T08:53:33;9.80;;;4.13;;
2011;SDS011;1009;51.436;6.972;2023-06-26T08:56:06;10.50;;;3.80;;
2011;SDS011;1009;51.436;6.972;2023-06-26T08:58:34;8.50;;;4.20;;
2011;SDS011;1009;51.436;6.972;2023-06-26T09:01:05;6.50;;;3.13;;
2011;SDS011;1009;51.436;6.972;2023-06-26T09:03:45;6.43;;;3.13;;
2011;SDS011;1009;51.436;6.972;2023-06-26T09:06:12;5.70;;;3.57;;
2011;SDS011;1009;51.436;6.972;2023-06-26T09:08:39;7.80;;;4.20;;
2011;SDS011;1009;51.436;6.972;2023-06-26T09:11:06;7.50;;;3.33;;
2011;SDS011;1009;51.436;6.972;2023-06-26T09:13:33;9.53;;;4.27;;
2011;SDS011;1009;51.436;6.972;2023-06-26T09:16:04;6.83;;;3.30;;
2011;SDS011;1009;51.436;6.972;2023-06-26T09:18:34;7.67;;;4.63;;
2011;SDS011;1009;51.436;6.972;2023-06-26T09:21:07;8.60;;;3.43;;
2011;SDS011;1009;51.436;6.972;2023-06-26T09:23:34;7.77;;;3.60;;
2011;SDS011;1009;51.436;6.972;2023-06-26T09:26:02;7.83;;;3.10;;
2011;SDS011;1009;51.436;6.972;2023-06-26T09:28:33;6.63;;;3.70;;
2011;SDS011;1009;51.436;6.972;2023-06-26T09:31:24;9.13;;;3.40;;
2011;SDS011;1009;51.436;6.972;2023-06-26T09:33:55;5.93;;;3.83;;
2011;SDS011;1009;51.436;6.972;2023-06-26T09:36:27;5.47;;;3.13;;
2011;SDS011;1009;51.436;6.972;2023-06-26T09:38:58;4.73;;;2.90;;
2011;SDS011;1009;51.436;6.972;2023-06-26T09:41:25;10.30;;;3.87;;
2011;SDS011;1009;51.436;6.972;2023-06-26T09:43:52;4.00;;;2.80;;
2011;SDS011;1009;51.436;6.972;2023-06-26T09:46:24;6.30;;;3.80;;
2011;SDS011;1009;51.436;6.972;2023-06-26T09:48:57;7.13;;;4.07;;
2011;SDS011;1009;51.436;6.972;2023-06-26T09:51:26;7.40;;;3.30;;
2011;SDS011;1009;51.436;6.972;2023-06-26T09:53:55;4.77;;;2.80;;
2011;SDS011;1009;51.436;6.972;2023-06-26T09:56:22;5.50;;;3.60;;
2011;SDS011;1009;51.436;6.972;2023-06-26T09:58:49;6.10;;;3.50;;
2011;SDS011;1009;51.436;6.972;2023-06-26T10:01:16;6.37;;;2.70;;
2011;SDS011;1009;51.436;6.972;2023-06-26T10:03:43;6.27;;;2.80;;
2011;SDS011;1009;51.436;6.972;2023-06-26T10:06:12;7.43;;;3.27;;
2011;SDS011;1009;51.436;6.972;2023-06-26T10:08:40;5.67;;;2.67;;
2011;SDS011;1009;51.436;6.972;2023-06-26T10:11:09;5.27;;;3.03;;
2011;SDS011;1009;51.436;6.972;2023-06-26T10:13:41;4.90;;;2.80;;
2011;SDS011;1009;51.436;6.972;2023-06-26T10:16:11;4.27;;;2.60;;
2011;SDS011;1009;51.436;6.972;2023-06-26T10:18:39;3.20;;;2.00;;
2011;SDS011;1009;51.436;6.972;2023-06-26T10:21:07;7.60;;;2.80;;
2011;SDS011;1009;51.436;6.972;2023-06-26T10:23:35;3.83;;;2.40;;
2011;SDS011;1009;51.436;6.972;2023-06-26T10:26:05;6.77;;;2.80;;
2011;SDS011;1009;51.436;6.972;2023-06-26T10:28:34;7.00;;;3.67;;
2011;SDS011;1009;51.436;6.972;2023-06-26T10:31:03;3.90;;;2.60;;
2011;SDS011;1009;51.436;6.972;2023-06-26T10:33:33;9.30;;;2.90;;
2011;SDS011;1009;51.436;6.972;2023-06-26T10:36:13;5.87;;;2.90;;
2011;SDS011;1009;51.436;6.972;2023-06-26T10:38:50;6.20;;;3.17;;
2011;SDS011;1009;51.436;6.972;2023-06-26T10:41:20;3.73;;;2.23;;
2011;SDS011;1009;51.436;6.972;2023-06-26T10:43:49;5.00;;;2.80;;
2011;SDS011;1009;51.436;6.972;2023-06-26T10:46:17;4.30;;;2.47;;
2011;SDS011;1009;51.436;6.972;2023-06-26T10:48:58;5.07;;;2.10;;
2011;SDS011;1009;51.436;6.972;2023-06-26T10:51:25;3.20;;;2.70;;
2011;SDS011;1009;51.436;6.972;2023-06-26T10:53:56;5.03;;;2.73;;
2011;SDS011;1009;51.436;6.972;2023-06-26T10:59:16;3.23;;;2.40;;
2011;SDS011;1009;51.436;6.972;2023-06-26T11:01:44;4.87;;;2.70;;
2011;SDS011;1009;51.436;6.972;2023-06-26T11:04:12;3.63;;;2.50;;
2011;SDS011;1009;51.436;6.972;2023-06-26T11:06:41;5.93;;;3.10;;
2011;SDS011;1009;51.436;6.972;2023-06-26T11:09:13;7.60;;;2.90;;
2011;SDS011;1009;51.436;6.972;2023-06-26T11:12:01;4.87;;;3.20;;
2011;SDS011;1009;51.436;6.972;2023-06-26T11:14:30;3.87;;;3.47;;
2011;SDS011;1009;51.436;6.972;2023-06-26T11:16:57;3.40;;;3.10;;
2011;SDS011;1009;51.436;6.972;2023-06-26T11:19:25;3.40;;;2.30;;
2011;SDS011;1009;51.436;6.972;2023-06-26T11:21:56;4.67;;;2.13;;
2011;SDS011;1009;51.436;6.972;2023-06-26T11:24:30;3.80;;;1.80;;
2011;SDS011;1009;51.436;6.972;2023-06-26T11:27:04;4.23;;;2.00;;
2011;SDS011;1009;51.436;6.972;2023-06-26T11:29:31;3.60;;;1.53;;
2011;SDS011;1009;51.436;6.972;2023-06-26T11:31:59;3.87;;;1.73;;
2011;SDS011;1009;51.436;6.972;2023-06-26T11:34:29;3.93;;;1.77;;
2011;SDS011;1009;51.436;6.972;2023-06-26T11:36:57;2.00;;;1.80;;
2011;SDS011;1009;51.436;6.972;2023-06-26T11:39:26;4.10;;;1.90;;
2011;SDS011;1009;51.436;6.972;2023-06-26T11:41:53;2.13;;;1.33;;
2011;SDS011;1009;51.436;6.972;2023-06-26T11:44:21;2.33;;;1.57;;
2011;SDS011;1009;51.436;6.972;2023-06-26T11:46:51;3.87;;;1.50;;
2011;SDS011;1009;51.436;6.972;2023-06-26T11:49:20;3.47;;;1.70;;
2011;SDS011;1009;51.436;6.972;2023-06-26T11:51:48;2.80;;;1.73;;
2011;SDS011;1009;51.436;6.972;2023-06-26T11:54:15;3.90;;;1.30;;
2011;SDS011;1009;51.436;6.972;2023-06-26T11:56:51;2.80;;;1.20;;
2011;SDS011;1009;51.436;6.972;2023-06-26T11:59:19;3.33;;;1.27;;
2011;SDS011;1009;51.436;6.972;2023-06-26T12:01:48;2.20;;;1.63;;
2011;SDS011;1009;51.436;6.972;2023-06-26T12:04:16;3.47;;;1.47;;
2011;SDS011;1009;51.436;6.972;2023-06-26T12:06:45;1.50;;;1.13;;
2011;SDS011;1009;51.436;6.972;2023-06-26T12:09:13;3.33;;;0.90;;
2011;SDS011;1009;51.436;6.972;2023-06-26T12:11:42;1.27;;;1.07;;
2011;SDS011;1009;51.436;6.972;2023-06-26T12:14:10;1.63;;;1.10;;
2011;SDS011;1009;51.436;6.972;2023-06-26T12:16:38;1.63;;;1.33;;
2011;SDS011;1009;51.436;6.972;2023-06-26T12:19:06;3.57;;;1.40;;
2011;SDS011;1009;51.436;6.972;2023-06-26T12:21:47;2.17;;;1.40;;
2011;SDS011;1009;51.436;6.972;2023-06-26T12:24:18;6.60;;;1.17;;
2011;SDS011;1009;51.436;6.972;2023-06-26T12:26:46;4.93;;;1.00;;
2011;SDS011;1009;51.436;6.972;2023-06-26T12:29:15;1.30;;;1.00;;
2011;SDS011;1009;51.436;6.972;2023-06-26T12:31:45;1.43;;;1.30;;
2011;SDS011;1009;51.436;6.972;2023-06-26T12:34:15;1.50;;;0.70;;
2011;SDS011;1009;51.436;6.972;2023-06-26T12:36:45;2.00;;;0.80;;
2011;SDS011;1009;51.436;6.972;2023-06-26T12:39:14;1.63;;;0.60;;
2011;SDS011;1009;51.436;6.972;2023-06-26T12:41:45;1.90;;;1.10;;
2011;SDS011;1009;51.436;6.972;2023-06-26T12:44:16;1.47;;;1.17;;
2011;SDS011;1009;51.436;6.972;2023-06-26T12:46:47;2.57;;;1.03;;
2011;SDS011;1009;51.436;6.972;2023-06-26T12:49:14;2.73;;;1.20;;
2011;SDS011;1009;51.436;6.972;2023-06-26T12:51:42;3.27;;;1.10;;
2011;SDS011;1009;51.436;6.972;2023-06-26T12:54:09;6.77;;;1.10;;
2011;SDS011;1009;51.436;6.972;2023-06-26T12:56:36;2.20;;;1.00;;
2011;SDS011;1009;51.436;6.972;2023-06-26T12:59:03;2.50;;;1.00;;
2011;SDS011;1009;51.436;6.972;2023-06-26T13:01:29;2.40;;;1.33;;
2011;SDS011;1009;51.436;6.972;2023-06-26T13:03:58;2.70;;;1.10;;
2011;SDS011;1009;51.436;6.972;2023-06-26T13:06:28;1.73;;;0.67;;
2011;SDS011;1009;51.436;6.972;2023-06-26T13:08:55;2.10;;;1.03;;
2011;SDS011;1009;51.436;6.972;2023-06-26T13:11:21;5.03;;;1.17;;
2011;SDS011;1009;51.436;6.972;2023-06-26T13:13:48;1.23;;;0.93;;
2011;SDS011;1009;51.436;6.972;2023-06-26T13:16:16;1.57;;;0.63;;
2011;SDS011;1009;51.436;6.972;2023-06-26T13:18:43;2.00;;;0.97;;
2011;SDS011;1009;51.436;6.972;2023-06-26T13:24:34;1.63;;;0.77;;
2011;SDS011;1009;51.436;6.972;2023-06-26T13:27:00;1.73;;;0.87;;
2011;SDS011;1009;51.436;6.972;2023-06-26T13:29:28;1.20;;;0.80;;
2011;SDS011;1009;51.436;6.972;2023-06-26T13:31:55;2.53;;;0.80;;
2011;SDS011;1009;51.436;6.972;2023-06-26T13:34:23;2.30;;;0.80;;
2011;SDS011;1009;51.436;6.972;2023-06-26T13:36:52;1.20;;;0.73;;
2011;SDS011;1009;51.436;6.972;2023-06-26T13:39:19;3.13;;;0.80;;
2011;SDS011;1009;51.436;6.972;2023-06-26T13:41:48;2.17;;;1.10;;
2011;SDS011;1009;51.436;6.972;2023-06-26T13:44:14;2.00;;;1.00;;
2011;SDS011;1009;51.436;6.972;2023-06-26T13:46:41;5.93;;;1.00;;
2011;SDS011;1009;51.436;6.972;2023-06-26T13:49:08;2.27;;;1.10;;
2011;SDS011;1009;51.436;6.972;2023-06-26T13:51:35;2.83;;;1.30;;
2011;SDS011;1009;51.436;6.972;2023-06-26T13:54:01;1.80;;;0.87;;
2011;SDS011;1009;51.436;6.972;2023-06-26T13:56:28;3.30;;;1.13;;
2011;SDS011;1009;51.436;6.972;2023-06-26T13:58:57;5.87;;;1.10;;
2011;SDS011;1009;51.436;6.972;2023-06-26T14:01:24;1.83;;;0.70;;
2011;SDS011;1009;51.436;6.972;2023-06-26T14:03:51;2.07;;;1.10;;
2011;SDS011;1009;51.436;6.972;2023-06-26T14:06:18;1.13;;;0.67;;
2011;SDS011;1009;51.436;6.972;2023-06-26T14:08:45;1.57;;;1.00;;
2011;SDS011;1009;51.436;6.972;2023-06-26T14:11:12;2.00;;;0.80;;
2011;SDS011;1009;51.436;6.972;2023-06-26T14:13:40;1.80;;;1.10;;
2011;SDS011;1009;51.436;6.972;2023-06-26T14:16:08;2.33;;;1.17;;
2011;SDS011;1009;51.436;6.972;2023-06-26T14:18:35;3.20;;;1.10;;
2011;SDS011;1009;51.436;6.972;2023-06-26T14:21:02;2.63;;;1.40;;
2011;SDS011;1009;51.436;6.972;2023-06-26T14:23:29;1.83;;;0.80;;
2011;SDS011;1009;51.436;6.972;2023-06-26T14:25:55;1.87;;;1.00;;
2011;SDS011;1009;51.436;6.972;2023-06-26T14:28:22;4.57;;;1.80;;
2011;SDS011;1009;51.436;6.972;2023-06-26T14:30:49;1.60;;;1.10;;
2011;SDS011;1009;51.436;6.972;2023-06-26T14:33:17;2.17;;;1.37;;
2011;SDS011;1009;51.436;6.972;2023-06-26T14:35:44;1.40;;;0.93;;
2011;SDS011;1009;51.436;6.972;2023-06-26T14:38:10;4.13;;;1.20;;
2011;SDS011;1009;51.436;6.972;2023-06-26T14:40:37;1.87;;;1.00;;
2011;SDS011;1009;51.436;6.972;2023-06-26T14:43:04;1.60;;;1.10;;
2011;SDS011;1009;51.436;6.972;2023-06-26T14:45:31;1.33;;;0.90;;
2011;SDS011;1009;51.436;6.972;2023-06-26T14:47:58;1.97;;;0.67;;
2011;SDS011;1009;51.436;6.972;2023-06-26T14:50:26;2.10;;;0.80;;
2011;SDS011;1009;51.436;6.972;2023-06-26T14:52:52;1.90;;;0.80;;
2011;SDS011;1009;51.436;6.972;2023-06-26T14:55:19;1.50;;;0.70;;
2011;SDS011;1009;51.436;6.972;2023-06-26T14:57:46;3.83;;;0.63;;
2011;SDS011;1009;51.436;6.972;2023-06-26T15:00:14;2.10;;;0.90;;
2011;SDS011;1009;51.436;6.972;2023-06-26T15:02:41;1.50;;;0.67;;
2011;SDS011;1009;51.436;6.972;2023-06-26T15:05:08;1.90;;;0.93;;
2011;SDS011;1009;51.436;6.972;2023-06-26T15:07:36;1.30;;;0.93;;
2011;SDS011;1009;51.436;6.972;2023-06-26T15:10:03;1.63;;;1.00;;
2011;SDS011;1009;51.436;6.972;2023-06-26T15:12:32;1.33;;;0.80;;
2011;SDS011;1009;51.436;6.972;2023-06-26T15:14:58;2.03;;;0.90;;
2011;SDS011;1009;51.436;6.972;2023-06-26T15:17:25;1.13;;;0.83;;
2011;SDS011;1009;51.436;6.972;2023-06-26T15:19:52;1.87;;;0.87;;
2011;SDS011;1009;51.436;6.972;2023-06-26T15:22:21;1.30;;;0.80;;
2011;SDS011;1009;51.436;6.972;2023-06-26T15:30:01;7.30;;;1.20;;
2011;SDS011;1009;51.436;6.972;2023-06-26T15:32:28;2.23;;;1.10;;
2011;SDS011;1009;51.436;6.972;2023-06-26T15:34:54;4.03;;;1.23;;
2011;SDS011;1009;51.436;6.972;2023-06-26T15:37:21;2.33;;;1.17;;
2011;SDS011;1009;51.436;6.972;2023-06-26T15:39:48;2.40;;;0.80;;
2011;SDS011;1009;51.436;6.972;2023-06-26T15:42:14;2.00;;;0.87;;